Latest Weather Observations for Thevenard

IDS60801

Issued at 3:02 am CDT Saturday 28 February 2015 (issued every 30 minutes, with the page automatically refreshed every 10 minutes)

About weather observations | Map of weather stations | Latest weather observations for SA | Other Formats
Station Details ID: 018200 Name: THEVENARD WIND Lat: -32.18 Lon: 133.63 Height: 8.85 m
Data from the previous 72 hours. | See also: Recent months for locations in South Australia
Date/Time
CDT
Temp
°C
App
Temp
°C
Dew
Point
Rel
Hum
%
Delta-T
°C
Wind Press
QNH
hPa
Press
MSL
hPa
Rain
since 9 am
mm
Dir
 
Spd
km/h
Gust
km/h
Spd
kts
Gust
kts
28/03:00am - - - - - SSW 4 6 2 3 - - -
28/02:30am - - - - - W 6 7 3 4 - - -
28/02:00am - - - - - SW 6 6 3 3 - - -
28/01:30am - - - - - CALM 0 2 0 1 - - -
28/01:00am - - - - - SSE 2 4 1 2 - - -
28/12:30am - - - - - NW 6 7 3 4 - - -
28/12:00am - - - - - N 9 15 5 8 - - -
 
Date/Time
CDT
Temp
°C
App
Temp
°C
Dew
Point
Rel
Hum
%
Delta-T
°C
Wind Press
QNH
hPa
Press
MSL
hPa
Rain
since 9 am
mm
Dir
 
Spd
km/h
Gust
km/h
Spd
kts
Gust
kts
27/11:30pm - - - - - ENE 13 15 7 8 - - -
27/11:00pm - - - - - E 15 17 8 9 - - -
27/10:30pm - - - - - E 19 20 10 11 - - -
27/10:00pm - - - - - E 19 20 10 11 - - -
27/09:30pm - - - - - ESE 19 22 10 12 - - -
27/09:00pm - - - - - ESE 20 22 11 12 - - -
27/08:30pm - - - - - ESE 17 22 9 12 - - -
27/08:00pm - - - - - ESE 17 32 9 17 - - -
27/07:30pm - - - - - SE 19 26 10 14 - - -
27/07:00pm - - - - - SE 17 22 9 12 - - -
27/06:30pm - - - - - SE 15 19 8 10 - - -
27/06:00pm - - - - - SE 17 19 9 10 - - -
27/05:30pm - - - - - SE 17 20 9 11 - - -
27/05:00pm - - - - - SE 19 20 10 11 - - -
27/04:30pm - - - - - SSE 20 22 11 12 - - -
27/04:00pm - - - - - S 13 17 7 9 - - -
27/03:30pm - - - - - SSW 15 19 8 10 - - -
27/03:00pm - - - - - SW 26 32 14 17 - - -
27/02:30pm - - - - - NNW 20 30 11 16 - - -
27/02:00pm - - - - - NW 30 37 16 20 - - -
27/01:30pm - - - - - NNW 22 28 12 15 - - -
27/01:00pm - - - - - N 24 32 13 17 - - -
27/12:30pm - - - - - N 24 28 13 15 - - -
27/12:00pm - - - - - N 22 28 12 15 - - -
27/11:30am - - - - - N 22 28 12 15 - - -
27/11:00am - - - - - NNE 22 26 12 14 - - -
27/10:30am - - - - - NNE 24 32 13 17 - - -
27/10:00am - - - - - NNE 22 28 12 15 - - -
27/09:30am - - - - - NNE 22 28 12 15 - - -
27/09:00am - - - - - NE 28 33 15 18 - - -
27/08:30am - - - - - NE 28 32 15 17 - - -
27/08:00am - - - - - NE 24 30 13 16 - - -
27/07:30am - - - - - NE 22 26 12 14 - - -
27/07:00am - - - - - NE 22 26 12 14 - - -
27/06:30am - - - - - NE 20 24 11 13 - - -
27/06:00am - - - - - NE 17 19 9 10 - - -
27/05:30am - - - - - NE 15 17 8 9 - - -
27/05:00am - - - - - NE 15 24 8 13 - - -
27/04:30am - - - - - ENE 17 22 9 12 - - -
27/04:00am - - - - - NE 13 17 7 9 - - -
27/03:30am - - - - - ENE 11 15 6 8 - - -
27/03:00am - - - - - E 13 17 7 9 - - -
27/02:30am - - - - - ESE 13 17 7 9 - - -
27/02:00am - - - - - E 15 22 8 12 - - -
27/01:30am - - - - - ENE 13 17 7 9 - - -
27/01:00am - - - - - E 11 17 6 9 - - -
27/12:30am - - - - - ESE 20 24 11 13 - - -
27/12:00am - - - - - SE 22 28 12 15 - - -
 
Date/Time
CDT
Temp
°C
App
Temp
°C
Dew
Point
Rel
Hum
%
Delta-T
°C
Wind Press
QNH
hPa
Press
MSL
hPa
Rain
since 9 am
mm
Dir
 
Spd
km/h
Gust
km/h
Spd
kts
Gust
kts
26/11:30pm - - - - - SE 26 32 14 17 - - -
26/11:00pm - - - - - SE 30 35 16 19 - - -
26/10:30pm - - - - - SSE 32 35 17 19 - - -
26/10:00pm - - - - - SE 24 32 13 17 - - -
26/09:30pm - - - - - SSE 33 39 18 21 - - -
26/09:00pm - - - - - SSE 32 35 17 19 - - -
26/08:30pm - - - - - SSE 30 33 16 18 - - -
26/08:00pm - - - - - SSE 30 33 16 18 - - -
26/07:30pm - - - - - SSE 30 35 16 19 - - -
26/07:00pm - - - - - S 32 37 17 20 - - -
26/06:30pm - - - - - S 24 30 13 16 - - -
26/06:00pm - - - - - SSE 19 28 10 15 - - -
26/05:30pm - - - - - S 22 24 12 13 - - -
26/05:00pm - - - - - S 22 24 12 13 - - -
26/04:30pm - - - - - S 24 28 13 15 - - -
26/04:00pm - - - - - S 24 32 13 17 - - -
26/03:30pm - - - - - S 26 30 14 16 - - -
26/03:00pm - - - - - S 24 30 13 16 - - -
26/02:30pm - - - - - S 20 22 11 12 - - -
26/02:00pm - - - - - S 22 24 12 13 - - -
26/01:30pm - - - - - S 22 24 12 13 - - -
26/01:00pm - - - - - S 22 26 12 14 - - -
26/12:30pm - - - - - S 17 20 9 11 - - -
26/12:00pm - - - - - S 19 22 10 12 - - -
26/11:30am - - - - - SSE 15 17 8 9 - - -
26/11:00am - - - - - SSE 15 17 8 9 - - -
26/10:30am - - - - - SE 9 15 5 8 - - -
26/10:00am - - - - - SE 13 19 7 10 - - -
26/09:30am - - - - - SE 11 15 6 8 - - -
26/09:00am - - - - - ESE 9 13 5 7 - - -
26/08:30am - - - - - ESE 7 9 4 5 - - -
26/08:00am - - - - - ESE 9 11 5 6 - - -
26/07:30am - - - - - ENE 13 17 7 9 - - -
26/07:00am - - - - - E 11 15 6 8 - - -
26/06:30am - - - - - ESE 11 17 6 9 - - -
26/06:00am - - - - - ESE 9 13 5 7 - - -
26/05:30am - - - - - S 2 4 1 2 - - -
26/05:00am - - - - - CALM 0 2 0 1 - - -
26/04:30am - - - - - NE 9 13 5 7 - - -
26/04:00am - - - - - E 13 15 7 8 - - -
26/03:30am - - - - - ENE 11 13 6 7 - - -
26/03:00am - - - - - ESE 11 15 6 8 - - -
26/02:30am - - - - - ESE 15 19 8 10 - - -
26/02:00am - - - - - SE 17 22 9 12 - - -
26/01:30am - - - - - SE 22 26 12 14 - - -
26/01:00am - - - - - SSE 24 28 13 15 - - -
26/12:30am - - - - - SSE 24 28 13 15 - - -
26/12:00am - - - - - SSE 20 24 11 13 - - -
 
Date/Time
CDT
Temp
°C
App
Temp
°C
Dew
Point
Rel
Hum
%
Delta-T
°C
Wind Press
QNH
hPa
Press
MSL
hPa
Rain
since 9 am
mm
Dir
 
Spd
km/h
Gust
km/h
Spd
kts
Gust
kts
25/11:30pm - - - - - SSE 24 28 13 15 - - -
25/11:00pm - - - - - SSE 22 26 12 14 - - -
25/10:30pm - - - - - SSE 24 28 13 15 - - -
25/10:00pm - - - - - SSE 22 24 12 13 - - -
25/09:30pm - - - - - SSE 20 24 11 13 - - -
25/09:00pm - - - - - SSE 22 24 12 13 - - -
25/08:30pm - - - - - S 24 28 13 15 - - -
25/08:00pm - - - - - S 26 30 14 16 - - -
25/07:30pm - - - - - SSE 24 28 13 15 - - -
25/07:00pm - - - - - S 28 33 15 18 - - -
25/06:30pm - - - - - S 30 33 16 18 - - -
25/06:00pm - - - - - S 26 30 14 16 - - -
25/05:30pm - - - - - S 28 33 15 18 - - -
25/05:00pm - - - - - S 35 39 19 21 - - -
25/04:30pm - - - - - S 35 41 19 22 - - -
25/04:00pm - - - - - S 28 30 15 16 - - -
25/03:30pm - - - - - S 32 37 17 20 - - -
25/03:00pm - - - - - S 28 32 15 17 - - -
25/02:30pm - - - - - SSW 13 15 7 8 - - -
25/02:00pm - - - - - S 13 15 7 8 - - -
25/01:30pm - - - - - S 17 19 9 10 - - -
25/01:00pm - - - - - S 13 15 7 8 - - -
25/12:30pm - - - - - SSW 11 13 6 7 - - -
25/12:00pm - - - - - SSW 13 15 7 8 - - -
25/11:30am - - - - - SW 9 11 5 6 - - -
25/11:00am - - - - - WNW 4 7 2 4 - - -
25/10:30am - - - - - E 2 6 1 3 - - -
25/10:00am - - - - - ENE 11 15 6 8 - - -
25/09:30am - - - - - E 17 20 9 11 - - -
25/09:00am - - - - - ESE 20 26 11 14 - - -
25/08:30am - - - - - E 19 22 10 12 - - -
25/08:00am - - - - - ESE 24 28 13 15 - - -
25/07:30am - - - - - ESE 22 28 12 15 - - -
25/07:00am - - - - - ESE 22 28 12 15 - - -
25/06:30am - - - - - ESE 22 28 12 15 - - -
25/06:00am - - - - - E 19 24 10 13 - - -
25/05:30am - - - - - E 19 26 10 14 - - -
25/05:00am - - - - - ESE 32 39 17 21 - - -
25/04:30am - - - - - ESE 32 37 17 20 - - -
25/04:00am - - - - - ESE 33 46 18 25 - - -
25/03:30am - - - - - ESE 33 44 18 24 - - -

Other Formats:

Comma delimited format used in spreadsheet applications
http://www.bom.gov.au/fwo/IDS60801/IDS60801.95653.axf

JavaScript Object Notation format (JSON) in row-major order
http://www.bom.gov.au/fwo/IDS60801/IDS60801.95653.json